Hlavní strana
METAR-TAF:

METAR-TAF

Letiště :

Uherské Hradiště, Česká republika

Letiště Kunovice

zeměpisná šířka: 49-01-46N, zeměpisná délka: 017-26-23E, výška: 177 m

Aktuální stav počasí

Zpráva byla vytvořena před 20 hodinami a 26 minutami, v 15:00 UTC
Severoseverozápadní vítr 7 kt
Teplota 0°C
Vlhkost vzduchu 69%
Tlak 1014 hPa
Viditelnost: 4000 m
kouřmo

METAR: LKKU 201500Z 34007KT 4000 BR NSC M00/M05 Q1014

Čas: 12:26 (11:26 UTC)


TAF: chybějící

Stav a předpovědi počasí z více než 4 000 letišť (zprávy METAR a TAF).

Červené a žluté tečky na mapě představují dostupné meteorologické stanice.

Když kurzor umístíte na tečku, zobrazí se název stanice.

Pak kliknutím zobrazíte stav a předpověď počasí.

Chcete-li změnit mapu, kliknutím na zelené tlačítko se znaménkem +mapu přiblížíte, kliknutím na zelené tlačítko se znaménkem – mapu oddálíte a kliknutím na zelené šipky přejdete na sousední mapy.


METAR-TAF: